createdAt,value
2022-07-30T00:00:02.510Z,86
2022-07-30T00:03:09.922Z,86
2022-07-30T00:04:15.544Z,86
2022-07-30T00:05:34.933Z,86
2022-07-30T00:07:10.848Z,86
2022-07-30T00:08:15.671Z,86
2022-07-30T00:10:18.583Z,86
2022-07-30T00:13:05.956Z,86
2022-07-30T00:14:36.021Z,86
2022-07-30T00:17:49.199Z,87
2022-07-30T00:21:38.918Z,87
2022-07-30T00:22:43.607Z,87
2022-07-30T00:24:25.287Z,87
2022-07-30T00:26:56.702Z,87
2022-07-30T00:28:13.312Z,87
2022-07-30T00:29:23.147Z,87
2022-07-30T00:31:11.247Z,87
2022-07-30T00:32:16.027Z,87
2022-07-30T00:33:41.912Z,87
2022-07-30T00:34:57.786Z,87
2022-07-30T00:37:17.806Z,87
2022-07-30T00:38:47.249Z,87
2022-07-30T00:40:49.002Z,87
2022-07-30T00:41:58.185Z,87
2022-07-30T00:43:18.270Z,87
2022-07-30T00:44:28.646Z,87
2022-07-30T00:46:31.885Z,87
2022-07-30T00:48:43.668Z,86
2022-07-30T00:49:48.189Z,86
2022-07-30T00:50:57.459Z,86
2022-07-30T00:52:09.710Z,86
2022-07-30T00:53:37.858Z,86
2022-07-30T00:54:57.873Z,87
2022-07-30T00:56:35.478Z,87
2022-07-30T00:57:54.994Z,86
2022-07-30T00:59:03.475Z,86
2022-07-30T01:00:27.501Z,86
2022-07-30T01:01:55.848Z,86
2022-07-30T01:03:09.517Z,86
2022-07-30T01:04:14.609Z,86
2022-07-30T01:05:19.847Z,86
2022-07-30T01:07:16.687Z,86
2022-07-30T01:08:45.527Z,86
2022-07-30T01:14:00.217Z,86
2022-07-30T01:18:48.875Z,86
2022-07-30T01:23:26.469Z,86
2022-07-30T01:25:18.042Z,86
2022-07-30T01:28:20.535Z,86
2022-07-30T01:31:20.426Z,86
2022-07-30T01:32:52.731Z,86
2022-07-30T01:34:18.450Z,86
2022-07-30T01:36:40.531Z,86
2022-07-30T01:40:17.169Z,86
2022-07-30T01:44:43.510Z,86
2022-07-30T01:45:53.421Z,86
2022-07-30T01:47:40.590Z,86
2022-07-30T01:48:45.312Z,86
2022-07-30T01:50:23.231Z,86
2022-07-30T01:51:33.195Z,86
2022-07-30T01:52:34.571Z,86
2022-07-30T01:53:45.563Z,86
2022-07-30T01:56:48.454Z,86
2022-07-30T01:58:51.280Z,86
2022-07-30T01:59:58.123Z,86
2022-07-30T02:01:31.204Z,86
2022-07-30T02:03:06.215Z,86
2022-07-30T02:04:25.800Z,86
2022-07-30T02:05:39.747Z,86
2022-07-30T02:06:51.955Z,86
2022-07-30T02:08:03.135Z,86
2022-07-30T02:09:58.094Z,86
2022-07-30T02:11:08.605Z,86
2022-07-30T02:12:30.353Z,87
2022-07-30T02:14:06.931Z,86
2022-07-30T02:15:33.511Z,86
2022-07-30T02:17:08.615Z,87
2022-07-30T02:18:14.033Z,87
2022-07-30T02:19:32.760Z,87
2022-07-30T02:20:35.754Z,87
2022-07-30T02:21:39.551Z,87
2022-07-30T02:23:04.862Z,87
2022-07-30T02:24:10.587Z,87
2022-07-30T02:25:41.971Z,86
2022-07-30T02:27:08.587Z,87
2022-07-30T02:28:22.791Z,87
2022-07-30T02:29:28.191Z,87
2022-07-30T02:30:33.312Z,87
2022-07-30T02:31:49.529Z,87
2022-07-30T02:33:52.866Z,87
2022-07-30T02:34:58.095Z,87
2022-07-30T02:38:09.887Z,87
2022-07-30T02:39:46.804Z,87
2022-07-30T02:40:55.742Z,87
2022-07-30T02:42:31.347Z,86
2022-07-30T02:43:36.571Z,86
2022-07-30T02:45:55.555Z,86
2022-07-30T02:48:31.326Z,86
2022-07-30T02:49:58.799Z,86
2022-07-30T02:51:05.657Z,86
2022-07-30T02:52:59.123Z,86
2022-07-30T02:54:25.116Z,86
2022-07-30T02:55:30.618Z,86
2022-07-30T02:57:00.079Z,86
2022-07-30T02:58:25.882Z,86
2022-07-30T02:59:31.982Z,86
2022-07-30T03:01:22.829Z,87
2022-07-30T03:02:51.641Z,87
2022-07-30T03:04:03.371Z,87
2022-07-30T03:05:42.928Z,87
2022-07-30T03:07:07.672Z,86
2022-07-30T03:08:12.787Z,86
2022-07-30T03:09:17.499Z,86
2022-07-30T03:10:30.404Z,86
2022-07-30T03:11:41.990Z,86
2022-07-30T03:12:57.275Z,86
2022-07-30T03:14:02.653Z,86
2022-07-30T03:16:50.171Z,86
2022-07-30T03:21:06.267Z,86
2022-07-30T03:22:16.579Z,86
2022-07-30T03:23:44.338Z,87
2022-07-30T03:24:51.467Z,87
2022-07-30T03:26:13.463Z,87
2022-07-30T03:27:19.588Z,87
2022-07-30T03:29:22.131Z,87
2022-07-30T03:30:27.403Z,87
2022-07-30T03:32:40.658Z,87
2022-07-30T03:33:48.327Z,87
2022-07-30T03:35:38.903Z,87
2022-07-30T03:36:53.086Z,87
2022-07-30T03:38:06.299Z,87
2022-07-30T03:39:18.643Z,87
2022-07-30T03:41:22.166Z,86
2022-07-30T03:42:39.239Z,86
2022-07-30T03:44:08.098Z,87
2022-07-30T03:45:36.459Z,86
2022-07-30T03:47:21.702Z,87
2022-07-30T03:48:53.058Z,87
2022-07-30T03:50:27.710Z,86
2022-07-30T03:51:33.950Z,86
2022-07-30T03:54:27.002Z,86
2022-07-30T03:55:37.847Z,86
2022-07-30T03:57:32.211Z,86
2022-07-30T03:58:37.142Z,86
2022-07-30T03:59:57.724Z,86
2022-07-30T04:01:38.377Z,86
2022-07-30T04:02:59.522Z,86
2022-07-30T04:04:05.169Z,87
2022-07-30T04:05:18.112Z,87
2022-07-30T04:06:39.335Z,87
2022-07-30T04:08:01.418Z,87
2022-07-30T04:09:09.520Z,87
2022-07-30T04:10:34.191Z,87
2022-07-30T04:11:44.291Z,87
2022-07-30T04:13:09.688Z,86
2022-07-30T04:14:13.122Z,86
2022-07-30T04:16:05.337Z,86
2022-07-30T04:16:40.790Z,86
2022-07-30T04:18:16.314Z,86
2022-07-30T04:19:29.893Z,86
2022-07-30T04:20:39.265Z,86
2022-07-30T04:22:13.185Z,86
2022-07-30T04:24:01.671Z,86
2022-07-30T04:25:57.390Z,86
2022-07-30T04:27:31.061Z,86
2022-07-30T04:28:37.109Z,86
2022-07-30T04:29:45.257Z,86
2022-07-30T04:30:55.109Z,86
2022-07-30T04:34:11.565Z,86
2022-07-30T04:39:22.560Z,86
2022-07-30T04:40:28.765Z,86
2022-07-30T04:42:24.038Z,86
2022-07-30T04:43:44.405Z,86
2022-07-30T04:44:50.881Z,86
2022-07-30T04:46:23.253Z,86
2022-07-30T04:49:06.205Z,86
2022-07-30T04:50:11.777Z,86
2022-07-30T04:53:55.761Z,86
2022-07-30T04:55:24.258Z,86
2022-07-30T04:58:21.353Z,86
2022-07-30T04:59:27.201Z,86
2022-07-30T05:00:32.583Z,86
2022-07-30T05:02:27.361Z,86
2022-07-30T05:05:19.674Z,86
2022-07-30T05:06:29.361Z,86
2022-07-30T05:07:34.191Z,86
2022-07-30T05:09:50.407Z,86
2022-07-30T05:16:35.774Z,86
2022-07-30T05:18:39.563Z,86
2022-07-30T05:22:06.498Z,86
2022-07-30T05:28:57.258Z,86
2022-07-30T05:30:01.865Z,86
2022-07-30T05:31:34.904Z,86
2022-07-30T05:32:44.737Z,86
2022-07-30T05:34:01.333Z,86
2022-07-30T05:38:11.761Z,86
2022-07-30T05:43:21.978Z,86
2022-07-30T05:52:51.145Z,86
2022-07-30T05:54:23.816Z,86
2022-07-30T05:55:28.673Z,86
2022-07-30T06:02:07.896Z,86
2022-07-30T06:04:04.955Z,86
2022-07-30T06:05:57.789Z,86
2022-07-30T06:08:18.652Z,86
2022-07-30T06:12:17.309Z,86
2022-07-30T06:14:21.957Z,86
2022-07-30T06:18:09.454Z,86
2022-07-30T06:22:02.000Z,86
2022-07-30T06:23:31.021Z,86
2022-07-30T06:27:39.656Z,85
2022-07-30T06:41:22.190Z,83
2022-07-30T06:43:42.253Z,84
2022-07-30T06:46:04.344Z,83
2022-07-30T06:49:32.462Z,84
2022-07-30T06:53:18.445Z,83
2022-07-30T06:54:23.557Z,83
2022-07-30T06:55:28.681Z,83
2022-07-30T06:56:38.845Z,83
2022-07-30T06:59:57.651Z,83
2022-07-30T07:01:17.604Z,82
2022-07-30T07:03:39.578Z,81
2022-07-30T07:09:22.901Z,81
2022-07-30T07:11:16.094Z,80
2022-07-30T07:21:45.682Z,80
2022-07-30T10:47:50.155Z,69
2022-07-30T18:17:30.766Z,89
2022-07-30T18:18:38.218Z,89
2022-07-30T18:19:45.243Z,89
2022-07-30T18:24:15.138Z,89
2022-07-30T18:25:54.531Z,89
2022-07-30T18:31:46.437Z,89
2022-07-30T18:33:31.702Z,89
2022-07-30T18:38:02.566Z,89
2022-07-30T19:11:41.992Z,89
2022-07-30T19:16:51.914Z,89
2022-07-30T19:59:45.709Z,89
2022-07-30T22:38:40.796Z,89
2022-07-30T22:39:54.217Z,89
2022-07-30T22:40:58.377Z,89
2022-07-30T22:42:12.483Z,89
2022-07-30T22:43:41.820Z,89
2022-07-30T22:45:46.488Z,89
2022-07-30T22:47:50.552Z,89
2022-07-30T22:48:29.853Z,89
2022-07-30T22:50:51.872Z,89
2022-07-30T22:52:03.786Z,89
2022-07-30T22:53:57.030Z,89
2022-07-30T22:55:34.193Z,89
2022-07-30T22:58:31.369Z,89
2022-07-30T23:06:52.696Z,89
2022-07-30T23:12:26.009Z,89
2022-07-30T23:12:33.483Z,89
2022-07-30T23:13:32.348Z,89
2022-07-30T23:14:36.780Z,89
2022-07-30T23:19:47.395Z,89
2022-07-30T23:21:43.019Z,89
2022-07-30T23:24:07.711Z,89
2022-07-30T23:27:58.547Z,89
2022-07-30T23:29:03.143Z,89
2022-07-30T23:30:29.929Z,89
2022-07-30T23:32:06.649Z,89
2022-07-30T23:34:39.248Z,89
2022-07-30T23:35:44.127Z,89
2022-07-30T23:39:25.374Z,89
2022-07-30T23:41:11.763Z,89
2022-07-30T23:42:52.062Z,89
2022-07-30T23:44:56.087Z,89
2022-07-30T23:46:00.939Z,89
2022-07-30T23:48:36.727Z,89
2022-07-30T23:52:10.686Z,89
2022-07-30T23:53:36.076Z,89
2022-07-30T23:54:40.442Z,89
2022-07-30T23:56:03.311Z,89
2022-07-30T23:57:07.892Z,89
2022-07-30T23:58:49.382Z,89
2022-07-30T23:59:54.020Z,89
